createdAt,value
2023-05-14T00:00:02.430Z,12.02
2023-05-14T00:02:28.879Z,11.96
2023-05-14T00:04:55.240Z,12.00
2023-05-14T00:07:21.592Z,12.06
2023-05-14T00:09:47.898Z,12.05
2023-05-14T00:12:14.358Z,12.17
2023-05-14T00:14:40.729Z,12.13
2023-05-14T00:17:07.203Z,12.13
2023-05-14T00:19:33.572Z,12.15
2023-05-14T00:21:59.888Z,12.10
2023-05-14T00:24:26.397Z,12.15
2023-05-14T00:26:52.784Z,12.04
2023-05-14T00:29:19.331Z,12.07
2023-05-14T00:31:45.820Z,12.11
2023-05-14T00:34:12.204Z,12.16
2023-05-14T00:36:38.495Z,12.13
2023-05-14T00:39:04.920Z,12.03
2023-05-14T00:41:31.276Z,12.14
2023-05-14T00:43:57.634Z,12.15
2023-05-14T00:46:24.032Z,12.10
2023-05-14T00:48:50.560Z,12.13
2023-05-14T00:51:17.930Z,12.08
2023-05-14T00:53:45.377Z,12.15
2023-05-14T00:56:11.904Z,12.24
2023-05-14T00:58:38.199Z,12.19
2023-05-14T01:01:04.709Z,12.26
2023-05-14T01:03:32.034Z,12.22
2023-05-14T01:06:22.131Z,12.25
2023-05-14T01:09:05.716Z,12.18
2023-05-14T01:11:48.314Z,12.21
2023-05-14T01:14:21.783Z,12.27
2023-05-14T01:16:56.680Z,12.26
2023-05-14T01:19:32.331Z,12.33
2023-05-14T01:21:58.620Z,12.31
2023-05-14T01:24:24.913Z,12.30
2023-05-14T01:26:51.341Z,12.30
2023-05-14T01:29:22.950Z,12.22
2023-05-14T01:31:51.164Z,12.26
2023-05-14T01:34:22.750Z,12.38
2023-05-14T01:36:51.346Z,12.28
2023-05-14T01:39:19.077Z,12.26
2023-05-14T01:41:46.485Z,12.33
2023-05-14T01:44:13.095Z,12.17
2023-05-14T01:46:39.538Z,12.17
2023-05-14T01:49:06.050Z,12.19
2023-05-14T01:51:32.685Z,12.13
2023-05-14T01:53:59.011Z,12.15
2023-05-14T01:56:25.427Z,12.15
2023-05-14T01:58:51.727Z,12.21
2023-05-14T02:01:18.160Z,12.15
2023-05-14T02:03:44.672Z,12.13
2023-05-14T02:06:11.109Z,12.21
2023-05-14T02:08:37.482Z,12.13
2023-05-14T02:11:03.774Z,12.17
2023-05-14T02:13:30.156Z,12.12
2023-05-14T02:15:58.034Z,12.19
2023-05-14T02:18:24.548Z,12.21
2023-05-14T02:20:50.964Z,12.15
2023-05-14T02:23:17.263Z,12.15
2023-05-14T02:25:44.612Z,12.02
2023-05-14T02:28:10.954Z,12.21
2023-05-14T02:30:37.298Z,12.16
2023-05-14T02:33:03.721Z,12.24
2023-05-14T02:35:30.157Z,12.18
2023-05-14T02:37:56.560Z,12.22
2023-05-14T02:40:23.103Z,12.11
2023-05-14T02:42:49.587Z,12.18
2023-05-14T02:45:15.930Z,12.13
2023-05-14T02:47:42.327Z,12.10
2023-05-14T02:50:09.125Z,12.16
2023-05-14T02:52:35.573Z,12.14
2023-05-14T02:55:02.709Z,12.18
2023-05-14T02:57:28.992Z,12.12
2023-05-14T02:59:55.438Z,12.16
2023-05-14T03:02:22.178Z,12.16
2023-05-14T03:04:49.072Z,12.15
2023-05-14T03:07:15.349Z,12.15
2023-05-14T03:09:41.688Z,12.15
2023-05-14T03:12:08.179Z,12.13
2023-05-14T03:14:34.515Z,12.11
2023-05-14T03:17:00.969Z,12.07
2023-05-14T03:19:27.329Z,12.05
2023-05-14T03:21:53.737Z,12.13
2023-05-14T03:24:20.088Z,12.12
2023-05-14T03:26:46.426Z,12.08
2023-05-14T03:29:12.764Z,12.15
2023-05-14T03:31:39.080Z,12.08
2023-05-14T03:34:05.565Z,12.14
2023-05-14T03:36:32.247Z,12.14
2023-05-14T03:38:58.518Z,12.03
2023-05-14T03:41:24.873Z,12.04
2023-05-14T03:43:51.248Z,12.08
2023-05-14T03:46:17.592Z,12.05
2023-05-14T03:48:43.935Z,11.99
2023-05-14T03:51:10.389Z,12.02
2023-05-14T03:53:36.732Z,11.93
2023-05-14T03:56:03.178Z,11.94
2023-05-14T03:58:29.459Z,11.89
2023-05-14T04:00:55.860Z,11.89
2023-05-14T04:03:22.266Z,11.75
2023-05-14T04:05:48.716Z,11.79
2023-05-14T04:08:14.988Z,11.71
2023-05-14T04:10:42.802Z,11.70
2023-05-14T04:13:09.276Z,11.71
2023-05-14T04:15:35.608Z,11.67
2023-05-14T04:18:02.116Z,11.71
2023-05-14T04:20:28.499Z,11.75
2023-05-14T04:22:54.871Z,11.67
2023-05-14T04:25:21.218Z,11.61
2023-05-14T04:27:47.580Z,11.66
2023-05-14T04:30:14.145Z,11.70
2023-05-14T04:32:40.464Z,11.71
2023-05-14T04:35:07.608Z,11.72
2023-05-14T04:37:33.902Z,11.78
2023-05-14T04:40:00.321Z,11.88
2023-05-14T04:42:26.623Z,11.89
2023-05-14T04:44:53.067Z,11.89
2023-05-14T04:47:19.351Z,11.85
2023-05-14T04:49:45.736Z,11.98
2023-05-14T04:52:12.084Z,11.92
2023-05-14T04:54:38.572Z,12.00
2023-05-14T04:57:05.151Z,12.02
2023-05-14T04:59:31.518Z,11.99
2023-05-14T05:01:57.906Z,12.01
2023-05-14T05:04:24.412Z,12.05
2023-05-14T05:06:50.788Z,12.00
2023-05-14T05:09:20.041Z,12.04
2023-05-14T05:11:46.394Z,12.04
2023-05-14T05:14:12.709Z,11.91
2023-05-14T05:16:39.217Z,11.94
2023-05-14T05:19:05.650Z,11.98
2023-05-14T05:21:32.193Z,11.86
2023-05-14T05:23:58.481Z,11.87
2023-05-14T05:26:26.355Z,11.83
2023-05-14T05:28:52.711Z,11.77
2023-05-14T05:31:19.928Z,11.79
2023-05-14T05:33:46.505Z,11.74
2023-05-14T05:36:12.839Z,11.72
2023-05-14T05:38:39.192Z,11.77
2023-05-14T05:41:05.550Z,11.77
2023-05-14T05:43:31.836Z,11.84
2023-05-14T05:45:58.184Z,11.87
2023-05-14T05:48:24.656Z,11.98
2023-05-14T05:50:50.947Z,12.15
2023-05-14T05:53:17.236Z,12.23
2023-05-14T05:55:43.642Z,12.34
2023-05-14T05:58:09.921Z,12.45
2023-05-14T06:00:36.371Z,12.50
2023-05-14T06:03:02.833Z,12.62
2023-05-14T06:05:29.163Z,12.85
2023-05-14T06:07:55.550Z,12.99
2023-05-14T06:10:22.122Z,13.21
2023-05-14T06:12:48.702Z,13.38
2023-05-14T06:15:15.180Z,13.53
2023-05-14T06:17:41.622Z,14.01
2023-05-14T06:20:08.589Z,13.99
2023-05-14T06:22:34.971Z,14.00
2023-05-14T06:25:01.376Z,14.19
2023-05-14T06:27:27.739Z,14.45
2023-05-14T06:29:54.015Z,14.48
2023-05-14T06:32:20.445Z,14.59
2023-05-14T06:34:46.966Z,14.70
2023-05-14T06:37:13.312Z,14.66
2023-05-14T06:39:40.362Z,14.86
2023-05-14T06:42:06.744Z,14.63
2023-05-14T06:44:33.046Z,14.59
2023-05-14T06:46:59.402Z,14.53
2023-05-14T06:49:25.717Z,14.55
2023-05-14T06:51:52.175Z,14.68
2023-05-14T06:54:18.527Z,14.79
2023-05-14T06:56:44.821Z,15.11
2023-05-14T06:59:11.430Z,15.29
2023-05-14T07:01:37.820Z,15.21
2023-05-14T07:04:04.376Z,15.32
2023-05-14T07:06:30.796Z,15.24
2023-05-14T07:08:57.079Z,15.24
2023-05-14T07:11:23.500Z,15.27
2023-05-14T07:13:49.788Z,15.25
2023-05-14T07:16:16.130Z,15.24
2023-05-14T07:18:42.534Z,15.42
2023-05-14T07:21:08.911Z,15.51
2023-05-14T07:23:35.460Z,15.47
2023-05-14T07:26:02.396Z,15.53
2023-05-14T07:28:28.673Z,15.52
2023-05-14T07:30:55.025Z,15.88
2023-05-14T07:33:21.802Z,15.85
2023-05-14T07:35:48.200Z,15.94
2023-05-14T07:38:14.829Z,16.03
2023-05-14T07:40:41.122Z,15.95
2023-05-14T07:43:07.476Z,16.04
2023-05-14T07:45:33.942Z,16.03
2023-05-14T07:48:00.716Z,16.10
2023-05-14T07:50:27.216Z,16.41
2023-05-14T07:52:53.621Z,16.49
2023-05-14T07:55:20.014Z,16.85
2023-05-14T07:57:46.841Z,17.04
2023-05-14T08:00:13.776Z,17.29
2023-05-14T08:02:40.564Z,17.71
2023-05-14T08:05:07.834Z,17.92
2023-05-14T08:07:34.500Z,18.40
2023-05-14T08:10:00.993Z,18.89
2023-05-14T08:12:27.369Z,19.11
2023-05-14T08:14:53.649Z,19.23
2023-05-14T08:17:20.027Z,19.50
2023-05-14T08:19:46.338Z,19.78
2023-05-14T08:22:12.641Z,20.64
2023-05-14T08:24:39.148Z,20.74
2023-05-14T08:27:05.559Z,20.89
2023-05-14T08:29:31.909Z,20.78
2023-05-14T08:32:00.272Z,21.61
2023-05-14T08:34:28.219Z,21.75
2023-05-14T08:36:54.589Z,21.75
2023-05-14T08:39:20.854Z,21.87
2023-05-14T08:41:47.914Z,22.15
2023-05-14T08:44:17.665Z,22.84
2023-05-14T08:46:44.418Z,22.41
2023-05-14T08:49:19.651Z,23.11
2023-05-14T08:51:46.239Z,22.69
2023-05-14T08:54:15.361Z,22.81
2023-05-14T08:56:41.910Z,23.21
2023-05-14T08:59:08.299Z,23.07
2023-05-14T09:01:35.140Z,22.90
2023-05-14T09:04:02.862Z,23.16
2023-05-14T09:06:29.981Z,23.09
2023-05-14T09:08:56.642Z,22.93
2023-05-14T09:11:22.998Z,23.48
2023-05-14T09:13:49.383Z,22.83
2023-05-14T09:16:18.456Z,22.79
2023-05-14T09:18:45.148Z,23.33
2023-05-14T09:21:14.204Z,23.36
2023-05-14T09:23:45.004Z,24.01
2023-05-14T09:26:12.065Z,23.88
2023-05-14T09:28:41.633Z,23.79
2023-05-14T09:31:09.834Z,24.05
2023-05-14T09:33:36.235Z,24.47
2023-05-14T09:36:02.686Z,24.72
2023-05-14T09:38:33.126Z,24.81
2023-05-14T09:41:00.524Z,24.87
2023-05-14T09:43:26.962Z,25.32
2023-05-14T09:45:53.291Z,24.98
2023-05-14T09:48:19.857Z,25.06
2023-05-14T09:50:46.817Z,24.59
2023-05-14T09:53:13.983Z,23.95
2023-05-14T09:55:40.584Z,23.14
2023-05-14T09:58:06.955Z,22.70
2023-05-14T10:00:35.105Z,22.62
2023-05-14T10:03:08.132Z,22.67
2023-05-14T10:05:39.862Z,23.16
2023-05-14T10:08:13.281Z,23.48
2023-05-14T10:10:39.892Z,23.47
2023-05-14T10:13:14.791Z,23.18
2023-05-14T10:15:49.185Z,22.83
2023-05-14T10:18:19.280Z,22.85
2023-05-14T10:20:53.238Z,23.22
2023-05-14T10:23:19.746Z,23.56
2023-05-14T10:25:46.226Z,24.11
2023-05-14T10:28:12.781Z,24.66
2023-05-14T10:30:46.024Z,24.66
2023-05-14T10:33:14.768Z,24.52
2023-05-14T10:35:50.680Z,24.05
2023-05-14T10:38:17.176Z,23.64
2023-05-14T10:40:43.978Z,23.77
2023-05-14T10:43:10.936Z,23.59
2023-05-14T10:45:37.354Z,23.27
2023-05-14T10:48:03.853Z,22.97
2023-05-14T10:50:30.390Z,22.98
2023-05-14T10:52:57.428Z,22.83
2023-05-14T10:55:25.119Z,22.86
2023-05-14T10:57:52.398Z,22.70
2023-05-14T11:00:18.828Z,22.54
2023-05-14T11:02:45.745Z,22.59
2023-05-14T11:05:15.433Z,22.30
2023-05-14T11:07:47.139Z,21.97
2023-05-14T11:10:15.442Z,21.95
2023-05-14T11:12:45.734Z,21.76
2023-05-14T11:15:14.633Z,21.50
2023-05-14T11:17:42.424Z,21.30
2023-05-14T11:20:10.352Z,21.25
2023-05-14T11:22:38.221Z,21.09
2023-05-14T11:25:05.598Z,21.06
2023-05-14T11:27:34.281Z,21.33
2023-05-14T11:30:01.090Z,20.96
2023-05-14T11:32:27.853Z,21.02
2023-05-14T11:34:54.333Z,21.12
2023-05-14T11:37:20.699Z,21.66
2023-05-14T11:39:51.560Z,21.53
2023-05-14T11:42:18.829Z,21.25
2023-05-14T11:44:49.347Z,21.12
2023-05-14T11:47:17.489Z,21.16
2023-05-14T11:49:44.473Z,21.18
2023-05-14T11:52:11.820Z,21.26
2023-05-14T11:54:38.493Z,21.55
2023-05-14T11:57:10.728Z,21.61
2023-05-14T11:59:37.230Z,21.57
2023-05-14T12:02:05.354Z,21.53
2023-05-14T12:04:32.033Z,21.58
2023-05-14T12:07:00.052Z,21.47
2023-05-14T12:09:26.606Z,21.49
2023-05-14T12:11:53.069Z,21.85
2023-05-14T12:14:22.983Z,21.98
2023-05-14T12:16:50.915Z,22.18
2023-05-14T12:19:19.758Z,21.95
2023-05-14T12:21:48.089Z,22.32
2023-05-14T12:24:17.097Z,22.61
2023-05-14T12:26:48.374Z,22.37
2023-05-14T12:29:16.410Z,22.44
2023-05-14T12:31:47.864Z,21.95
2023-05-14T12:34:15.518Z,21.83
2023-05-14T12:36:42.324Z,21.60
2023-05-14T12:39:10.178Z,21.66
2023-05-14T12:41:36.877Z,21.38
2023-05-14T12:44:04.922Z,21.35
2023-05-14T12:46:32.325Z,21.27
2023-05-14T12:48:58.629Z,21.05
2023-05-14T12:51:25.360Z,20.96
2023-05-14T12:53:51.731Z,21.06
2023-05-14T12:56:18.024Z,21.29
2023-05-14T12:58:44.414Z,21.06
2023-05-14T13:01:10.867Z,21.20
2023-05-14T13:03:37.528Z,21.33
2023-05-14T13:06:04.232Z,21.37
2023-05-14T13:08:30.777Z,21.12
2023-05-14T13:10:57.055Z,21.06
2023-05-14T13:13:23.682Z,21.11
2023-05-14T13:15:50.304Z,21.18
2023-05-14T13:18:17.924Z,21.26
2023-05-14T13:20:46.265Z,21.40
2023-05-14T13:23:12.807Z,21.37
2023-05-14T13:25:39.100Z,21.55
2023-05-14T13:28:05.507Z,21.73
2023-05-14T13:30:31.795Z,21.59
2023-05-14T13:32:59.300Z,21.63
2023-05-14T13:35:25.876Z,21.41
2023-05-14T13:37:52.288Z,21.48
2023-05-14T13:40:18.560Z,21.50
2023-05-14T13:42:44.931Z,21.82
2023-05-14T13:45:12.023Z,21.63
2023-05-14T13:47:40.080Z,21.58
2023-05-14T13:50:07.786Z,21.50
2023-05-14T13:52:34.217Z,21.58
2023-05-14T13:55:00.514Z,21.57
2023-05-14T13:57:26.843Z,21.62
2023-05-14T13:59:53.260Z,22.03
2023-05-14T14:02:19.602Z,21.85
2023-05-14T14:04:45.920Z,21.53
2023-05-14T14:07:12.391Z,21.37
2023-05-14T14:09:39.014Z,21.33
2023-05-14T14:12:05.891Z,21.14
2023-05-14T14:14:32.349Z,20.94
2023-05-14T14:16:58.653Z,21.06
2023-05-14T14:19:25.032Z,21.38
2023-05-14T14:24:17.657Z,21.63
2023-05-14T14:26:44.027Z,21.63
2023-05-14T14:29:10.312Z,21.56
2023-05-14T14:31:36.804Z,21.53
2023-05-14T14:34:03.309Z,21.58
2023-05-14T14:36:29.661Z,21.66
2023-05-14T14:38:56.180Z,21.58
2023-05-14T14:41:22.487Z,21.55
2023-05-14T14:43:48.798Z,21.60
2023-05-14T14:46:15.182Z,21.71
2023-05-14T14:48:41.565Z,21.67
2023-05-14T14:51:08.936Z,21.84
2023-05-14T14:53:36.446Z,21.86
2023-05-14T14:56:03.017Z,22.02
2023-05-14T14:58:29.521Z,22.23
2023-05-14T15:00:57.495Z,21.99
2023-05-14T15:03:25.303Z,21.84
2023-05-14T15:05:52.433Z,21.75
2023-05-14T15:08:19.087Z,21.87
2023-05-14T15:10:45.638Z,21.84
2023-05-14T15:13:12.765Z,22.10
2023-05-14T15:15:39.069Z,22.69
2023-05-14T15:18:05.579Z,23.55
2023-05-14T15:20:31.963Z,23.92
2023-05-14T15:22:58.458Z,24.04
2023-05-14T15:25:25.373Z,23.86
2023-05-14T15:27:52.028Z,23.43
2023-05-14T15:30:19.142Z,23.28
2023-05-14T15:32:45.635Z,23.01
2023-05-14T15:35:12.480Z,22.77
2023-05-14T15:37:40.994Z,22.64
2023-05-14T15:40:08.721Z,22.56
2023-05-14T15:42:39.851Z,22.32
2023-05-14T15:45:06.586Z,22.19
2023-05-14T15:47:33.040Z,22.20
2023-05-14T15:50:00.217Z,22.10
2023-05-14T15:52:26.942Z,21.88
2023-05-14T15:54:53.453Z,21.77
2023-05-14T15:57:20.299Z,21.77
2023-05-14T15:59:47.190Z,21.90
2023-05-14T16:02:14.875Z,22.00
2023-05-14T16:04:41.160Z,21.80
2023-05-14T16:07:09.675Z,21.72
2023-05-14T16:09:36.793Z,21.61
2023-05-14T16:12:05.035Z,21.66
2023-05-14T16:14:34.005Z,21.56
2023-05-14T16:17:00.402Z,21.33
2023-05-14T16:19:26.906Z,21.08
2023-05-14T16:21:53.257Z,20.99
2023-05-14T16:24:19.990Z,20.94
2023-05-14T16:26:46.778Z,20.87
2023-05-14T16:29:13.344Z,20.78
2023-05-14T16:31:39.665Z,20.78
2023-05-14T16:34:06.028Z,20.66
2023-05-14T16:36:32.323Z,20.51
2023-05-14T16:39:07.281Z,20.35
2023-05-14T16:41:38.091Z,20.29
2023-05-14T16:44:04.640Z,20.16
2023-05-14T16:46:31.027Z,20.39
2023-05-14T16:48:57.482Z,20.05
2023-05-14T16:51:23.867Z,19.86
2023-05-14T16:53:50.239Z,19.68
2023-05-14T16:56:17.411Z,19.67
2023-05-14T16:58:43.705Z,19.59
2023-05-14T17:01:10.308Z,19.34
2023-05-14T17:03:37.079Z,19.30
2023-05-14T17:06:03.583Z,19.33
2023-05-14T17:08:30.014Z,19.35
2023-05-14T17:10:56.417Z,19.32
2023-05-14T17:13:22.787Z,19.33
2023-05-14T17:15:49.136Z,19.23
2023-05-14T17:18:15.677Z,19.14
2023-05-14T17:20:41.975Z,19.05
2023-05-14T17:23:08.389Z,18.91
2023-05-14T17:25:34.702Z,18.93
2023-05-14T17:28:01.318Z,18.83
2023-05-14T17:30:27.686Z,18.91
2023-05-14T17:32:54.394Z,18.80
2023-05-14T17:35:20.725Z,18.86
2023-05-14T17:37:47.114Z,18.76
2023-05-14T17:40:13.512Z,18.72
2023-05-14T17:42:39.833Z,18.57
2023-05-14T17:45:06.826Z,18.56
2023-05-14T17:47:33.231Z,18.58
2023-05-14T17:49:59.626Z,18.54
2023-05-14T17:52:25.947Z,18.36
2023-05-14T17:54:52.582Z,18.19
2023-05-14T17:57:18.953Z,18.21
2023-05-14T17:59:45.419Z,18.12
2023-05-14T18:02:11.685Z,18.13
2023-05-14T18:04:38.081Z,17.88
2023-05-14T18:07:04.673Z,17.76
2023-05-14T18:09:30.998Z,17.84
2023-05-14T18:11:57.629Z,17.84
2023-05-14T18:14:23.931Z,17.31
2023-05-14T18:16:50.349Z,17.01
2023-05-14T18:19:16.724Z,16.78
2023-05-14T18:21:43.144Z,16.53
2023-05-14T18:24:09.477Z,16.15
2023-05-14T18:26:35.756Z,16.01
2023-05-14T18:29:02.139Z,15.89
2023-05-14T18:31:28.622Z,15.88
2023-05-14T18:33:55.113Z,15.79
2023-05-14T18:36:21.584Z,15.85
2023-05-14T18:38:47.892Z,15.67
2023-05-14T18:41:14.163Z,15.94
2023-05-14T18:43:40.575Z,15.61
2023-05-14T18:46:07.039Z,15.49
2023-05-14T18:48:33.452Z,15.28
2023-05-14T18:51:00.074Z,15.19
2023-05-14T18:53:26.508Z,15.07
2023-05-14T18:55:52.924Z,15.02
2023-05-14T18:58:19.818Z,15.06
2023-05-14T19:00:46.560Z,15.07
2023-05-14T19:03:12.962Z,14.99
2023-05-14T19:05:39.312Z,15.00
2023-05-14T19:08:05.795Z,14.95
2023-05-14T19:10:32.088Z,14.88
2023-05-14T19:12:58.713Z,14.83
2023-05-14T19:15:25.202Z,14.78
2023-05-14T19:17:52.064Z,14.79
2023-05-14T19:20:18.788Z,14.78
2023-05-14T19:22:45.103Z,14.75
2023-05-14T19:25:11.416Z,14.74
2023-05-14T19:27:38.245Z,14.81
2023-05-14T19:30:05.095Z,14.79
2023-05-14T19:32:31.496Z,14.81
2023-05-14T19:34:57.786Z,14.76
2023-05-14T19:37:24.193Z,14.81
2023-05-14T19:39:50.496Z,14.78
2023-05-14T19:42:17.059Z,14.77
2023-05-14T19:44:43.441Z,14.76
2023-05-14T19:47:09.908Z,14.70
2023-05-14T19:49:36.322Z,14.73
2023-05-14T19:52:02.602Z,14.66
2023-05-14T19:54:28.983Z,14.46
2023-05-14T19:56:55.277Z,14.40
2023-05-14T19:59:21.657Z,14.38
2023-05-14T20:01:48.022Z,14.36
2023-05-14T20:04:14.330Z,14.33
2023-05-14T20:06:40.734Z,14.19
2023-05-14T20:09:07.023Z,14.23
2023-05-14T20:11:33.367Z,14.17
2023-05-14T20:13:59.840Z,14.15
2023-05-14T20:16:26.614Z,14.13
2023-05-14T20:18:53.656Z,14.11
2023-05-14T20:21:19.982Z,13.95
2023-05-14T20:23:46.394Z,14.00
2023-05-14T20:26:12.808Z,14.03
2023-05-14T20:28:39.125Z,14.08
2023-05-14T20:31:05.439Z,14.11
2023-05-14T20:33:31.843Z,14.18
2023-05-14T20:35:58.233Z,14.17
2023-05-14T20:38:24.556Z,14.31
2023-05-14T20:40:50.938Z,14.20
2023-05-14T20:43:17.317Z,14.10
2023-05-14T20:45:43.933Z,14.03
2023-05-14T20:48:10.336Z,14.11
2023-05-14T20:50:36.657Z,14.10
2023-05-14T20:53:03.868Z,14.11
2023-05-14T20:55:30.241Z,14.06
2023-05-14T20:57:56.529Z,14.11
2023-05-14T21:00:23.228Z,14.11
2023-05-14T21:02:49.974Z,14.09
2023-05-14T21:05:16.830Z,14.07
2023-05-14T21:07:43.144Z,14.04
2023-05-14T21:10:10.125Z,14.07
2023-05-14T21:12:36.691Z,14.13
2023-05-14T21:15:03.515Z,14.05
2023-05-14T21:17:30.146Z,14.09
2023-05-14T21:19:56.491Z,14.05
2023-05-14T21:22:23.034Z,14.08
2023-05-14T21:24:50.176Z,14.11
2023-05-14T21:27:16.565Z,14.03
2023-05-14T21:29:42.950Z,13.97
2023-05-14T21:32:09.251Z,13.93
2023-05-14T21:34:35.645Z,13.93
2023-05-14T21:37:02.011Z,13.92
2023-05-14T21:39:28.306Z,13.86
2023-05-14T21:41:54.660Z,13.91
2023-05-14T21:44:21.733Z,13.83
2023-05-14T21:46:48.092Z,13.81
2023-05-14T21:49:14.507Z,13.83
2023-05-14T21:51:40.799Z,13.90
2023-05-14T21:54:07.281Z,13.80
2023-05-14T21:56:35.274Z,13.81
2023-05-14T21:59:01.681Z,13.72
2023-05-14T22:01:27.993Z,13.68
2023-05-14T22:03:55.775Z,13.65
2023-05-14T22:06:23.503Z,13.65
2023-05-14T22:08:49.793Z,13.60
2023-05-14T22:11:16.084Z,13.52
2023-05-14T22:13:42.733Z,13.50
2023-05-14T22:16:13.411Z,13.90
2023-05-14T22:18:40.792Z,14.08
2023-05-14T22:21:07.207Z,13.76
2023-05-14T22:23:33.764Z,13.51
2023-05-14T22:26:00.323Z,13.45
2023-05-14T22:28:26.623Z,13.39
2023-05-14T22:30:53.165Z,13.31
2023-05-14T22:33:19.438Z,13.37
2023-05-14T22:35:45.991Z,13.35
2023-05-14T22:38:13.289Z,13.44
2023-05-14T22:40:39.563Z,13.32
2023-05-14T22:43:05.847Z,13.43
2023-05-14T22:45:32.216Z,13.33
2023-05-14T22:47:58.636Z,13.43
2023-05-14T22:50:25.673Z,13.46
2023-05-14T22:52:51.974Z,13.38
2023-05-14T22:55:18.390Z,13.50
2023-05-14T22:57:44.810Z,13.62
2023-05-14T23:00:11.804Z,13.65
2023-05-14T23:02:38.291Z,13.60
2023-05-14T23:05:05.582Z,13.50
2023-05-14T23:07:31.960Z,13.41
2023-05-14T23:09:58.322Z,13.40
2023-05-14T23:12:24.679Z,13.35
2023-05-14T23:14:50.991Z,13.26
2023-05-14T23:17:17.780Z,13.31
2023-05-14T23:19:44.334Z,13.23
2023-05-14T23:22:10.703Z,13.26
2023-05-14T23:24:37.067Z,13.25
2023-05-14T23:27:03.456Z,13.16
2023-05-14T23:29:29.750Z,13.27
2023-05-14T23:31:56.121Z,13.26
2023-05-14T23:34:22.440Z,13.18
2023-05-14T23:36:49.067Z,13.11
2023-05-14T23:39:15.459Z,13.07
2023-05-14T23:41:41.825Z,13.03
2023-05-14T23:44:08.353Z,13.23
2023-05-14T23:46:34.833Z,13.23
2023-05-14T23:49:01.200Z,13.03
2023-05-14T23:51:27.800Z,13.05
2023-05-14T23:53:54.118Z,12.79
2023-05-14T23:56:20.674Z,12.74
2023-05-14T23:58:46.974Z,12.81
